Greenville, Illinois
Current Conditions -  °F | °C
As of 8:15 AM on Saturday 20 Dec 2014 (Local Time) from K3LF Reporting Station
Overcast Overcast  
Wind Chill: 26°   Ceiling: 5000
Heat Index: 32°   Visibility: 7mi
Dew Point: 27°   Wind: 6mph
Humidity: 82%   Direction: 150°SSE
Pressure: 30.27"   Gusts: NA
Location:  38.89°N, 89.41°W
Report Text: K3LF 201415Z AUTO 15005KT 7SM SCT025 OVC050 00/M03 A3027 RMK AO2 T10021030
Loading
Personal Weather Stations






























Interactive Weather Map New forecast layout! Learn more

10-Day Weather Forecast

Advertisements
Track Severe Weather on mobile